アルハンゲリスク の空港の天気 - METARとTAF

Arhangel'Sk ( ULAA / ARH ) - ロシア アルハンゲリスク
飛行場実況気象(Metar)
観測時間07/29 04:00 MSK (07/29 01:00 UTC)
風向・風速北東 2m/s
視程10km以上
天気現象
少しの雲 雲底高度 910m
気温7℃
湿度93%
気圧1006hPa
METARULAA 290100Z 05002MPS 9999 FEW030 07/06 Q1006 R08/CLRD70 NOSIG RMK QFE754/1005
過去の天気等 Google飛行場航空写真 Wunderground天気予報

過去48時間のMETAR

飛行場予報(TAF)
発表時間: 7/29 02:00 MSK (7/28 23:00 UTC)
予報対象時間: 29日3時 MSK ~ 30日3時 MSK
風向・風速東北東 3m/s
視程9000m
全天の4割程度の雲 雲底高度 520m
29日3時 MSK ~ 29日9時 MSK に一時的に
風向・風速北東 3m/s
視程6000m
天気現象地霧
少しの雲 雲底高度 150m
全天の4割程度の雲 雲底高度 490m
29日9時 MSK ~ 29日14時 MSK に一時的に
天気現象弱いしゅう雨
全天の4割程度の積乱雲 雲底高度 490m
29日14時 MSK ~ 29日20時 MSK に一時的に
風向・風速東南東 4m/s 瞬間風速 11m/s
視程6000m
天気現象弱い雷雨
全天の8割程度の積乱雲 雲底高度 490m
TAF ULAA 282300Z 2900/2924 07003MPS 9000 SCT017
TEMPO 2900/2906 04003MPS 6000 MIFG FEW005 SCT016
TEMPO 2906/2911 -SHRA SCT016CB
TEMPO 2911/2917 12004G11MPS 6000 -TSRA BKN016CB